Terminal Aerodrome Forecast
Issued by NWS

Current Version | Previous Version | Text Only | Print | Product List | Glossary On
Versions: 1 2 3 4 5 6 7 8 9 10 11 12 13 14 15 16 17 18 19 20 21 22 23 24
000
FTUS44 KOUN 201740
TAFHBR
TAF
KHBR 201740Z 2018/2118 18023G33KT P6SM SCT035 SCT150
      TEMPO 2018/2020 BKN035 BKN150
     FM210900 19020G30KT P6SM SCT025
      TEMPO 2109/2113 BKN025=

USA.gov is the U.S. government's official web portal to all federal, state and local government web resources and services.